createdAt,value
2019-06-20T00:06:43.389Z,27.9
2019-06-20T00:16:46.705Z,27.9
2019-06-20T00:26:50.033Z,27.8
2019-06-20T00:36:53.462Z,27.8
2019-06-20T00:46:56.827Z,27.8
2019-06-20T00:57:00.154Z,27.8
2019-06-20T01:07:03.491Z,27.8
2019-06-20T01:17:06.882Z,27.8
2019-06-20T01:27:10.203Z,27.8
2019-06-20T01:37:13.591Z,27.8
2019-06-20T01:47:16.953Z,27.7
2019-06-20T01:57:20.268Z,27.7
2019-06-20T02:07:23.654Z,27.7
2019-06-20T02:17:31.403Z,27.7
2019-06-20T02:27:34.757Z,27.7
2019-06-20T02:37:38.101Z,27.7
2019-06-20T02:47:41.451Z,27.7
2019-06-20T02:57:44.830Z,27.7
2019-06-20T03:07:48.272Z,27.6
2019-06-20T03:17:51.694Z,27.6
2019-06-20T03:27:55.075Z,27.6
2019-06-20T03:37:58.563Z,27.6
2019-06-20T03:48:01.913Z,27.6
2019-06-20T03:58:05.312Z,27.6
2019-06-20T04:08:08.650Z,27.6
2019-06-20T04:18:12.036Z,27.6
2019-06-20T04:28:15.398Z,27.6
2019-06-20T04:38:18.776Z,27.6
2019-06-20T04:48:22.125Z,27.6
2019-06-20T04:58:25.461Z,27.6
2019-06-20T05:08:28.849Z,27.6
2019-06-20T05:18:32.207Z,27.6
2019-06-20T05:28:35.579Z,27.6
2019-06-20T05:38:38.954Z,27.6
2019-06-20T05:48:43.212Z,26
2019-06-20T05:58:46.726Z,25.8
2019-06-20T06:08:50.076Z,26.5
2019-06-20T06:18:53.408Z,26.5
2019-06-20T06:28:56.788Z,26.6
2019-06-20T06:39:00.145Z,26.5
2019-06-20T06:49:03.526Z,26.7
2019-06-20T06:59:06.991Z,25.4
2019-06-20T07:09:10.339Z,25.8
2019-06-20T07:19:13.739Z,25.9
2019-06-20T07:29:17.086Z,25.6
2019-06-20T07:39:20.426Z,26.1
2019-06-20T07:49:23.765Z,25.8
2019-06-20T07:59:27.124Z,25.5
2019-06-20T08:09:44.218Z,25.2
2019-06-20T08:19:48.976Z,25.2
2019-06-20T08:29:52.346Z,25.3
2019-06-20T08:39:56.883Z,25.5
2019-06-20T08:50:03.837Z,25.3
2019-06-20T09:00:07.299Z,25.2
2019-06-20T09:10:10.877Z,25.2
2019-06-20T09:20:14.256Z,24.7
2019-06-20T09:30:17.664Z,24.4
2019-06-20T09:40:21.045Z,24.6
2019-06-20T09:50:24.402Z,24.3
2019-06-20T10:00:27.791Z,24.8
2019-06-20T10:10:31.136Z,24.8
2019-06-20T10:20:34.534Z,24.1
2019-06-20T10:30:37.996Z,24.4
2019-06-20T10:40:41.402Z,24.6
2019-06-20T10:50:45.644Z,23.8
2019-06-20T11:00:50.299Z,24.3
2019-06-20T11:10:53.761Z,24
2019-06-20T11:20:57.117Z,24.2
2019-06-20T11:31:00.848Z,23.1
2019-06-20T11:41:04.324Z,22.6
2019-06-20T11:51:07.681Z,23.5
2019-06-20T12:01:11.035Z,23.3
2019-06-20T12:11:14.369Z,23.3
2019-06-20T12:21:17.844Z,23.5
2019-06-20T12:31:21.232Z,23.1
2019-06-20T12:41:24.550Z,22.9
2019-06-20T12:51:28.893Z,24
2019-06-20T13:01:36.934Z,23.8
2019-06-20T13:11:53.154Z,23.7
2019-06-20T13:21:56.544Z,23.7
2019-06-20T13:32:04.090Z,23.9
2019-06-20T13:42:08.053Z,23.8
2019-06-20T13:52:11.396Z,24
2019-06-20T14:02:14.813Z,24.3
2019-06-20T14:12:18.164Z,24.4
2019-06-20T14:22:21.504Z,24.7
2019-06-20T14:32:24.859Z,24.8
2019-06-20T14:42:28.220Z,25
2019-06-20T14:52:31.555Z,25
2019-06-20T15:02:38.674Z,25
2019-06-20T15:12:42.633Z,25
2019-06-20T15:22:47.318Z,25.4
2019-06-20T15:33:07.341Z,25.6
2019-06-20T15:43:14.091Z,25.8
2019-06-20T15:53:17.453Z,25.9
2019-06-20T16:03:20.801Z,26
2019-06-20T16:13:24.209Z,26.1
2019-06-20T16:23:27.718Z,26.1
2019-06-20T16:33:31.123Z,25.9
2019-06-20T16:43:34.520Z,25.9
2019-06-20T16:53:37.881Z,25.9
2019-06-20T17:03:42.200Z,26
2019-06-20T17:13:45.646Z,26
2019-06-20T17:23:49.010Z,26
2019-06-20T17:33:57.327Z,26
2019-06-20T17:44:01.391Z,26.1
2019-06-20T17:54:04.795Z,26.1
2019-06-20T18:04:13.544Z,26.1
2019-06-20T18:14:17.723Z,26.1
2019-06-20T18:24:21.111Z,26.1
2019-06-20T18:34:29.797Z,26
2019-06-20T18:44:33.958Z,26
2019-06-20T18:54:37.307Z,25.9
2019-06-20T19:04:46.663Z,26
2019-06-20T19:14:54.276Z,26
2019-06-20T19:24:57.625Z,26
2019-06-20T19:35:02.631Z,25.9
2019-06-20T19:45:06.347Z,25.8
2019-06-20T19:55:09.743Z,25.8
2019-06-20T20:05:18.844Z,25.8
2019-06-20T20:15:23.606Z,25.7
2019-06-20T20:25:27.011Z,25.7
2019-06-20T20:35:35.200Z,25.7
2019-06-20T20:45:39.559Z,25.6
2019-06-20T20:55:42.908Z,25.6
2019-06-20T21:05:51.229Z,25.6
2019-06-20T21:15:55.369Z,25.6
2019-06-20T21:25:58.845Z,25.5
2019-06-20T21:36:08.230Z,25.5
2019-06-20T21:46:12.763Z,25.5
2019-06-20T21:56:16.116Z,25.5
2019-06-20T22:06:23.543Z,25.6
2019-06-20T22:16:27.675Z,25.5
2019-06-20T22:26:31.097Z,25.5
2019-06-20T22:36:39.909Z,25.5
2019-06-20T22:46:44.177Z,25.4
2019-06-20T22:56:47.556Z,25.4
2019-06-20T23:06:56.142Z,25.4
2019-06-20T23:17:00.465Z,25.4
2019-06-20T23:27:03.808Z,25.4
2019-06-20T23:37:12.518Z,25.3
2019-06-20T23:47:16.825Z,25.3
2019-06-20T23:57:20.167Z,25.3
